sensor_id;sensor_type;location;lat;lon;timestamp;P1;durP1;ratioP1;P2;durP2;ratioP2
70253;SDS011;57649;42.968;1.608;2022-09-09T00:04:31;4.78;;;1.30;;
70253;SDS011;57649;42.968;1.608;2022-09-09T00:09:47;4.38;;;1.15;;
70253;SDS011;57649;42.968;1.608;2022-09-09T00:15:22;4.13;;;1.50;;
70253;SDS011;57649;42.968;1.608;2022-09-09T01:07:12;3.63;;;1.33;;
70253;SDS011;57649;42.968;1.608;2022-09-09T01:28:00;7.05;;;1.92;;
70253;SDS011;57649;42.968;1.608;2022-09-09T01:33:10;3.10;;;1.13;;
70253;SDS011;57649;42.968;1.608;2022-09-09T01:53:52;4.55;;;1.42;;
70253;SDS011;57649;42.968;1.608;2022-09-09T02:27:45;4.25;;;1.90;;
70253;SDS011;57649;42.968;1.608;2022-09-09T02:30:14;2.85;;;1.55;;
70253;SDS011;57649;42.968;1.608;2022-09-09T02:32:41;4.05;;;1.52;;
70253;SDS011;57649;42.968;1.608;2022-09-09T02:35:09;3.65;;;1.58;;
70253;SDS011;57649;42.968;1.608;2022-09-09T02:42:48;3.05;;;1.65;;
70253;SDS011;57649;42.968;1.608;2022-09-09T02:45:24;6.30;;;2.20;;
70253;SDS011;57649;42.968;1.608;2022-09-09T03:08:34;2.30;;;1.20;;
70253;SDS011;57649;42.968;1.608;2022-09-09T03:11:00;6.15;;;1.85;;
70253;SDS011;57649;42.968;1.608;2022-09-09T03:13:26;4.78;;;1.60;;
70253;SDS011;57649;42.968;1.608;2022-09-09T03:15:52;4.25;;;1.70;;
70253;SDS011;57649;42.968;1.608;2022-09-09T03:18:17;4.75;;;1.48;;
70253;SDS011;57649;42.968;1.608;2022-09-09T03:23:18;4.88;;;1.75;;
70253;SDS011;57649;42.968;1.608;2022-09-09T03:28:19;3.25;;;1.33;;
70253;SDS011;57649;42.968;1.608;2022-09-09T03:30:45;3.55;;;1.55;;
70253;SDS011;57649;42.968;1.608;2022-09-09T03:33:11;3.67;;;1.38;;
70253;SDS011;57649;42.968;1.608;2022-09-09T03:35:37;3.83;;;1.60;;
70253;SDS011;57649;42.968;1.608;2022-09-09T03:38:04;3.15;;;1.50;;
70253;SDS011;57649;42.968;1.608;2022-09-09T03:45:39;4.72;;;1.65;;
70253;SDS011;57649;42.968;1.608;2022-09-09T03:50:44;6.40;;;1.63;;
70253;SDS011;57649;42.968;1.608;2022-09-09T03:53:10;3.55;;;1.60;;
70253;SDS011;57649;42.968;1.608;2022-09-09T03:55:36;4.57;;;1.70;;
70253;SDS011;57649;42.968;1.608;2022-09-09T04:00:36;6.60;;;1.60;;
70253;SDS011;57649;42.968;1.608;2022-09-09T04:03:08;3.60;;;1.92;;
70253;SDS011;57649;42.968;1.608;2022-09-09T04:05:34;4.03;;;2.00;;
70253;SDS011;57649;42.968;1.608;2022-09-09T04:08:00;5.47;;;1.60;;
70253;SDS011;57649;42.968;1.608;2022-09-09T04:12:59;3.67;;;1.80;;
70253;SDS011;57649;42.968;1.608;2022-09-09T04:15:24;4.40;;;1.30;;
70253;SDS011;57649;42.968;1.608;2022-09-09T04:17:50;6.47;;;4.40;;
70253;SDS011;57649;42.968;1.608;2022-09-09T04:20:16;10.00;;;3.80;;
70253;SDS011;57649;42.968;1.608;2022-09-09T04:22:41;7.93;;;2.30;;
70253;SDS011;57649;42.968;1.608;2022-09-09T04:32:53;3.88;;;2.70;;
70253;SDS011;57649;42.968;1.608;2022-09-09T04:35:18;4.53;;;1.40;;
70253;SDS011;57649;42.968;1.608;2022-09-09T04:37:45;7.30;;;2.53;;
70253;SDS011;57649;42.968;1.608;2022-09-09T04:40:10;3.55;;;1.60;;
70253;SDS011;57649;42.968;1.608;2022-09-09T04:42:36;3.92;;;1.65;;
70253;SDS011;57649;42.968;1.608;2022-09-09T04:45:02;5.90;;;1.73;;
70253;SDS011;57649;42.968;1.608;2022-09-09T04:47:28;5.60;;;1.65;;
70253;SDS011;57649;42.968;1.608;2022-09-09T04:49:53;8.52;;;1.77;;
70253;SDS011;57649;42.968;1.608;2022-09-09T04:52:19;3.85;;;1.70;;
70253;SDS011;57649;42.968;1.608;2022-09-09T04:54:45;4.55;;;1.40;;
70253;SDS011;57649;42.968;1.608;2022-09-09T04:57:11;5.20;;;1.33;;
70253;SDS011;57649;42.968;1.608;2022-09-09T04:59:40;4.75;;;1.45;;
70253;SDS011;57649;42.968;1.608;2022-09-09T05:02:06;4.60;;;2.40;;
70253;SDS011;57649;42.968;1.608;2022-09-09T05:04:31;4.85;;;2.10;;
70253;SDS011;57649;42.968;1.608;2022-09-09T05:06:58;8.13;;;2.70;;
70253;SDS011;57649;42.968;1.608;2022-09-09T05:09:24;5.28;;;1.70;;
70253;SDS011;57649;42.968;1.608;2022-09-09T05:14:21;5.32;;;1.40;;
70253;SDS011;57649;42.968;1.608;2022-09-09T05:16:47;7.20;;;3.00;;
70253;SDS011;57649;42.968;1.608;2022-09-09T05:19:15;6.85;;;2.47;;
70253;SDS011;57649;42.968;1.608;2022-09-09T05:21:40;6.55;;;1.90;;
70253;SDS011;57649;42.968;1.608;2022-09-09T05:24:06;6.32;;;1.50;;
70253;SDS011;57649;42.968;1.608;2022-09-09T05:26:32;4.55;;;1.90;;
70253;SDS011;57649;42.968;1.608;2022-09-09T05:28:57;11.20;;;2.15;;
70253;SDS011;57649;42.968;1.608;2022-09-09T05:31:25;8.20;;;1.92;;
70253;SDS011;57649;42.968;1.608;2022-09-09T05:33:53;4.93;;;2.22;;
70253;SDS011;57649;42.968;1.608;2022-09-09T05:36:20;3.35;;;2.08;;
70253;SDS011;57649;42.968;1.608;2022-09-09T05:38:46;3.70;;;1.80;;
70253;SDS011;57649;42.968;1.608;2022-09-09T05:41:13;4.13;;;2.00;;
70253;SDS011;57649;42.968;1.608;2022-09-09T05:43:42;4.03;;;1.95;;
70253;SDS011;57649;42.968;1.608;2022-09-09T05:46:16;3.60;;;1.75;;
70253;SDS011;57649;42.968;1.608;2022-09-09T05:48:44;8.40;;;2.00;;
70253;SDS011;57649;42.968;1.608;2022-09-09T05:51:16;6.40;;;1.98;;
70253;SDS011;57649;42.968;1.608;2022-09-09T05:53:44;4.13;;;2.20;;
70253;SDS011;57649;42.968;1.608;2022-09-09T05:56:14;7.13;;;1.90;;
70253;SDS011;57649;42.968;1.608;2022-09-09T05:58:41;3.00;;;1.88;;
70253;SDS011;57649;42.968;1.608;2022-09-09T06:03:36;5.93;;;2.00;;
70253;SDS011;57649;42.968;1.608;2022-09-09T06:06:04;7.78;;;2.00;;
70253;SDS011;57649;42.968;1.608;2022-09-09T06:08:32;4.90;;;2.05;;
70253;SDS011;57649;42.968;1.608;2022-09-09T06:11:04;5.57;;;1.75;;
70253;SDS011;57649;42.968;1.608;2022-09-09T06:13:34;4.15;;;1.80;;
70253;SDS011;57649;42.968;1.608;2022-09-09T06:16:02;6.32;;;2.00;;
70253;SDS011;57649;42.968;1.608;2022-09-09T06:18:28;6.95;;;2.58;;
70253;SDS011;57649;42.968;1.608;2022-09-09T06:20:55;4.25;;;2.20;;
70253;SDS011;57649;42.968;1.608;2022-09-09T06:23:34;7.97;;;3.25;;
70253;SDS011;57649;42.968;1.608;2022-09-09T06:26:04;5.88;;;2.33;;
70253;SDS011;57649;42.968;1.608;2022-09-09T06:28:32;6.25;;;2.60;;
70253;SDS011;57649;42.968;1.608;2022-09-09T06:30:58;6.38;;;2.08;;
70253;SDS011;57649;42.968;1.608;2022-09-09T06:33:25;8.00;;;3.35;;
70253;SDS011;57649;42.968;1.608;2022-09-09T06:35:51;15.25;;;4.25;;
70253;SDS011;57649;42.968;1.608;2022-09-09T06:38:18;7.90;;;2.10;;
70253;SDS011;57649;42.968;1.608;2022-09-09T06:40:50;11.30;;;2.75;;
70253;SDS011;57649;42.968;1.608;2022-09-09T06:43:16;8.27;;;2.88;;
70253;SDS011;57649;42.968;1.608;2022-09-09T06:45:42;10.30;;;3.60;;
70253;SDS011;57649;42.968;1.608;2022-09-09T06:48:07;10.57;;;3.80;;
70253;SDS011;57649;42.968;1.608;2022-09-09T06:50:33;6.07;;;2.83;;
70253;SDS011;57649;42.968;1.608;2022-09-09T06:52:59;7.00;;;2.92;;
70253;SDS011;57649;42.968;1.608;2022-09-09T06:55:25;14.50;;;5.50;;
70253;SDS011;57649;42.968;1.608;2022-09-09T06:58:00;10.10;;;3.85;;
70253;SDS011;57649;42.968;1.608;2022-09-09T07:00:25;11.98;;;4.15;;
70253;SDS011;57649;42.968;1.608;2022-09-09T07:02:50;18.00;;;7.50;;
70253;SDS011;57649;42.968;1.608;2022-09-09T07:05:16;20.77;;;7.82;;
70253;SDS011;57649;42.968;1.608;2022-09-09T07:07:41;15.18;;;6.00;;
70253;SDS011;57649;42.968;1.608;2022-09-09T07:10:07;10.45;;;3.78;;
70253;SDS011;57649;42.968;1.608;2022-09-09T07:12:32;10.48;;;5.40;;
70253;SDS011;57649;42.968;1.608;2022-09-09T07:14:58;7.45;;;2.45;;
70253;SDS011;57649;42.968;1.608;2022-09-09T07:17:23;9.93;;;2.70;;
70253;SDS011;57649;42.968;1.608;2022-09-09T07:19:49;6.55;;;1.95;;
70253;SDS011;57649;42.968;1.608;2022-09-09T07:22:14;9.55;;;2.20;;
70253;SDS011;57649;42.968;1.608;2022-09-09T07:24:41;5.53;;;2.58;;
70253;SDS011;57649;42.968;1.608;2022-09-09T07:27:06;7.60;;;3.30;;
70253;SDS011;57649;42.968;1.608;2022-09-09T07:29:31;10.88;;;2.00;;
70253;SDS011;57649;42.968;1.608;2022-09-09T07:31:57;5.05;;;2.58;;
70253;SDS011;57649;42.968;1.608;2022-09-09T07:34:24;14.88;;;3.33;;
70253;SDS011;57649;42.968;1.608;2022-09-09T07:36:49;7.97;;;2.08;;
70253;SDS011;57649;42.968;1.608;2022-09-09T07:39:14;5.80;;;2.30;;
70253;SDS011;57649;42.968;1.608;2022-09-09T07:41:42;7.90;;;1.92;;
70253;SDS011;57649;42.968;1.608;2022-09-09T07:44:16;5.20;;;1.98;;
70253;SDS011;57649;42.968;1.608;2022-09-09T07:46:43;5.00;;;2.13;;
70253;SDS011;57649;42.968;1.608;2022-09-09T07:49:10;7.38;;;1.95;;
70253;SDS011;57649;42.968;1.608;2022-09-09T07:51:40;4.45;;;1.85;;
70253;SDS011;57649;42.968;1.608;2022-09-09T07:54:09;7.35;;;2.15;;
70253;SDS011;57649;42.968;1.608;2022-09-09T07:56:36;7.55;;;1.90;;
70253;SDS011;57649;42.968;1.608;2022-09-09T07:59:03;8.48;;;1.98;;
70253;SDS011;57649;42.968;1.608;2022-09-09T08:03:58;17.50;;;1.73;;
70253;SDS011;57649;42.968;1.608;2022-09-09T08:06:27;10.95;;;3.17;;
70253;SDS011;57649;42.968;1.608;2022-09-09T08:08:54;4.22;;;2.03;;
70253;SDS011;57649;42.968;1.608;2022-09-09T08:11:20;6.53;;;2.75;;
70253;SDS011;57649;42.968;1.608;2022-09-09T08:13:48;3.80;;;1.60;;
70253;SDS011;57649;42.968;1.608;2022-09-09T08:16:15;4.13;;;1.90;;
70253;SDS011;57649;42.968;1.608;2022-09-09T08:18:42;11.05;;;2.03;;
70253;SDS011;57649;42.968;1.608;2022-09-09T08:23:36;7.13;;;1.77;;
70253;SDS011;57649;42.968;1.608;2022-09-09T08:26:07;7.40;;;1.98;;
70253;SDS011;57649;42.968;1.608;2022-09-09T08:28:37;5.00;;;1.63;;
70253;SDS011;57649;42.968;1.608;2022-09-09T08:31:06;7.68;;;1.85;;
70253;SDS011;57649;42.968;1.608;2022-09-09T08:33:33;6.25;;;1.85;;
70253;SDS011;57649;42.968;1.608;2022-09-09T08:35:58;5.20;;;1.75;;
70253;SDS011;57649;42.968;1.608;2022-09-09T08:38:24;4.13;;;1.55;;
70253;SDS011;57649;42.968;1.608;2022-09-09T08:40:49;4.45;;;1.30;;
70253;SDS011;57649;42.968;1.608;2022-09-09T08:43:24;7.15;;;1.52;;
70253;SDS011;57649;42.968;1.608;2022-09-09T08:46:02;3.72;;;1.55;;
70253;SDS011;57649;42.968;1.608;2022-09-09T08:51:27;5.32;;;1.70;;
70253;SDS011;57649;42.968;1.608;2022-09-09T08:53:55;3.92;;;1.40;;
70253;SDS011;57649;42.968;1.608;2022-09-09T08:56:25;4.10;;;1.45;;
70253;SDS011;57649;42.968;1.608;2022-09-09T08:58:53;5.13;;;1.55;;
70253;SDS011;57649;42.968;1.608;2022-09-09T09:07:43;2.38;;;1.27;;
70253;SDS011;57649;42.968;1.608;2022-09-09T09:10:18;4.88;;;1.40;;
70253;SDS011;57649;42.968;1.608;2022-09-09T09:12:46;5.05;;;1.70;;
70253;SDS011;57649;42.968;1.608;2022-09-09T09:15:31;6.07;;;1.40;;
70253;SDS011;57649;42.968;1.608;2022-09-09T09:18:02;6.95;;;1.48;;
70253;SDS011;57649;42.968;1.608;2022-09-09T09:20:39;2.90;;;1.30;;
70253;SDS011;57649;42.968;1.608;2022-09-09T09:23:25;9.00;;;1.60;;
70253;SDS011;57649;42.968;1.608;2022-09-09T09:25:58;4.60;;;1.48;;
70253;SDS011;57649;42.968;1.608;2022-09-09T09:28:26;5.67;;;1.50;;
70253;SDS011;57649;42.968;1.608;2022-09-09T09:31:04;3.65;;;1.23;;
70253;SDS011;57649;42.968;1.608;2022-09-09T09:33:36;3.58;;;1.40;;
70253;SDS011;57649;42.968;1.608;2022-09-09T09:36:11;5.20;;;1.67;;
70253;SDS011;57649;42.968;1.608;2022-09-09T09:38:40;4.90;;;1.92;;
70253;SDS011;57649;42.968;1.608;2022-09-09T09:44:20;3.95;;;1.50;;
70253;SDS011;57649;42.968;1.608;2022-09-09T09:46:51;3.47;;;1.40;;
70253;SDS011;57649;42.968;1.608;2022-09-09T09:49:18;5.15;;;1.40;;
70253;SDS011;57649;42.968;1.608;2022-09-09T09:51:43;5.15;;;1.90;;
70253;SDS011;57649;42.968;1.608;2022-09-09T09:56:54;7.20;;;1.58;;
70253;SDS011;57649;42.968;1.608;2022-09-09T10:01:54;6.57;;;1.40;;
70253;SDS011;57649;42.968;1.608;2022-09-09T10:04:31;4.57;;;1.55;;
70253;SDS011;57649;42.968;1.608;2022-09-09T10:06:58;7.55;;;1.95;;
70253;SDS011;57649;42.968;1.608;2022-09-09T10:09:36;4.78;;;1.80;;
70253;SDS011;57649;42.968;1.608;2022-09-09T10:31:38;4.82;;;1.38;;
70253;SDS011;57649;42.968;1.608;2022-09-09T10:36:47;4.78;;;1.50;;
70253;SDS011;57649;42.968;1.608;2022-09-09T10:39:24;2.70;;;1.38;;
70253;SDS011;57649;42.968;1.608;2022-09-09T10:42:08;3.92;;;1.55;;
70253;SDS011;57649;42.968;1.608;2022-09-09T10:48:31;3.17;;;1.38;;
70253;SDS011;57649;42.968;1.608;2022-09-09T10:55:56;4.03;;;1.50;;
70253;SDS011;57649;42.968;1.608;2022-09-09T10:58:37;5.75;;;1.65;;
70253;SDS011;57649;42.968;1.608;2022-09-09T11:01:15;3.50;;;1.10;;
70253;SDS011;57649;42.968;1.608;2022-09-09T11:03:43;5.20;;;1.77;;
70253;SDS011;57649;42.968;1.608;2022-09-09T11:06:16;4.60;;;1.40;;
70253;SDS011;57649;42.968;1.608;2022-09-09T11:19:25;5.55;;;1.38;;
70253;SDS011;57649;42.968;1.608;2022-09-09T11:21:55;7.18;;;1.98;;
70253;SDS011;57649;42.968;1.608;2022-09-09T11:24:38;3.03;;;1.38;;
70253;SDS011;57649;42.968;1.608;2022-09-09T11:27:17;2.42;;;1.27;;
70253;SDS011;57649;42.968;1.608;2022-09-09T11:30:01;4.20;;;1.20;;
70253;SDS011;57649;42.968;1.608;2022-09-09T11:41:32;7.72;;;1.88;;
70253;SDS011;57649;42.968;1.608;2022-09-09T11:43:48;4.80;;;1.60;;
70253;SDS011;57649;42.968;1.608;2022-09-09T11:46:19;4.97;;;1.55;;
70253;SDS011;57649;42.968;1.608;2022-09-09T11:48:58;6.97;;;2.25;;
70253;SDS011;57649;42.968;1.608;2022-09-09T11:51:29;4.78;;;1.35;;
70253;SDS011;57649;42.968;1.608;2022-09-09T11:54:00;9.18;;;3.30;;
70253;SDS011;57649;42.968;1.608;2022-09-09T12:01:28;5.97;;;1.60;;
70253;SDS011;57649;42.968;1.608;2022-09-09T12:04:04;3.45;;;1.50;;
70253;SDS011;57649;42.968;1.608;2022-09-09T12:06:46;4.38;;;1.75;;
70253;SDS011;57649;42.968;1.608;2022-09-09T12:09:23;4.28;;;1.48;;
70253;SDS011;57649;42.968;1.608;2022-09-09T12:11:50;5.53;;;2.40;;
70253;SDS011;57649;42.968;1.608;2022-09-09T12:14:35;4.45;;;1.73;;
70253;SDS011;57649;42.968;1.608;2022-09-09T12:17:09;3.47;;;1.45;;
70253;SDS011;57649;42.968;1.608;2022-09-09T12:19:38;4.50;;;1.70;;
70253;SDS011;57649;42.968;1.608;2022-09-09T12:22:07;4.82;;;2.13;;
70253;SDS011;57649;42.968;1.608;2022-09-09T12:24:59;3.40;;;1.42;;
70253;SDS011;57649;42.968;1.608;2022-09-09T12:30:28;1.58;;;1.00;;
70253;SDS011;57649;42.968;1.608;2022-09-09T12:33:08;1.80;;;0.93;;
70253;SDS011;57649;42.968;1.608;2022-09-09T12:35:37;2.60;;;1.17;;
70253;SDS011;57649;42.968;1.608;2022-09-09T12:38:04;1.67;;;1.00;;
70253;SDS011;57649;42.968;1.608;2022-09-09T12:40:35;1.67;;;1.10;;
70253;SDS011;57649;42.968;1.608;2022-09-09T12:43:22;1.45;;;0.90;;
70253;SDS011;57649;42.968;1.608;2022-09-09T12:45:48;2.83;;;1.40;;
70253;SDS011;57649;42.968;1.608;2022-09-09T12:48:16;3.25;;;0.98;;
70253;SDS011;57649;42.968;1.608;2022-09-09T12:55:52;2.35;;;0.90;;
70253;SDS011;57649;42.968;1.608;2022-09-09T12:58:21;1.77;;;0.80;;
70253;SDS011;57649;42.968;1.608;2022-09-09T13:00:51;1.27;;;0.80;;
70253;SDS011;57649;42.968;1.608;2022-09-09T13:03:21;3.17;;;1.00;;
70253;SDS011;57649;42.968;1.608;2022-09-09T13:05:47;3.20;;;0.80;;
70253;SDS011;57649;42.968;1.608;2022-09-09T13:08:14;5.32;;;1.95;;
70253;SDS011;57649;42.968;1.608;2022-09-09T13:11:07;2.92;;;1.00;;
70253;SDS011;57649;42.968;1.608;2022-09-09T13:13:39;3.75;;;1.35;;
70253;SDS011;57649;42.968;1.608;2022-09-09T13:16:07;1.77;;;0.93;;
70253;SDS011;57649;42.968;1.608;2022-09-09T13:18:50;5.38;;;1.33;;
70253;SDS011;57649;42.968;1.608;2022-09-09T13:21:16;1.67;;;0.93;;
70253;SDS011;57649;42.968;1.608;2022-09-09T13:23:42;3.40;;;1.17;;
70253;SDS011;57649;42.968;1.608;2022-09-09T13:26:22;4.15;;;1.17;;
70253;SDS011;57649;42.968;1.608;2022-09-09T13:28:50;2.00;;;0.80;;
70253;SDS011;57649;42.968;1.608;2022-09-09T13:31:27;5.95;;;1.20;;
70253;SDS011;57649;42.968;1.608;2022-09-09T13:33:55;2.55;;;0.80;;
70253;SDS011;57649;42.968;1.608;2022-09-09T13:36:30;1.02;;;0.70;;
70253;SDS011;57649;42.968;1.608;2022-09-09T13:38:58;1.20;;;0.60;;
70253;SDS011;57649;42.968;1.608;2022-09-09T13:41:29;1.58;;;0.90;;
70253;SDS011;57649;42.968;1.608;2022-09-09T13:43:57;0.75;;;0.60;;
70253;SDS011;57649;42.968;1.608;2022-09-09T13:46:25;2.00;;;0.77;;
70253;SDS011;57649;42.968;1.608;2022-09-09T13:51:44;2.67;;;0.93;;
70253;SDS011;57649;42.968;1.608;2022-09-09T13:54:12;1.63;;;1.02;;
70253;SDS011;57649;42.968;1.608;2022-09-09T13:56:39;1.30;;;1.00;;
70253;SDS011;57649;42.968;1.608;2022-09-09T13:59:08;2.65;;;1.20;;
70253;SDS011;57649;42.968;1.608;2022-09-09T14:01:35;3.10;;;1.40;;
70253;SDS011;57649;42.968;1.608;2022-09-09T14:04:02;3.20;;;1.10;;
70253;SDS011;57649;42.968;1.608;2022-09-09T14:06:28;2.30;;;0.90;;
70253;SDS011;57649;42.968;1.608;2022-09-09T14:08:54;4.43;;;0.98;;
70253;SDS011;57649;42.968;1.608;2022-09-09T14:11:20;1.65;;;0.80;;
70253;SDS011;57649;42.968;1.608;2022-09-09T14:13:46;3.08;;;0.88;;
70253;SDS011;57649;42.968;1.608;2022-09-09T14:16:12;3.65;;;1.88;;
70253;SDS011;57649;42.968;1.608;2022-09-09T14:18:38;5.43;;;1.00;;
70253;SDS011;57649;42.968;1.608;2022-09-09T14:21:04;1.98;;;1.00;;
70253;SDS011;57649;42.968;1.608;2022-09-09T14:23:29;2.38;;;1.13;;
70253;SDS011;57649;42.968;1.608;2022-09-09T14:25:55;4.05;;;1.75;;
70253;SDS011;57649;42.968;1.608;2022-09-09T14:28:21;2.92;;;1.42;;
70253;SDS011;57649;42.968;1.608;2022-09-09T14:30:47;3.15;;;1.05;;
70253;SDS011;57649;42.968;1.608;2022-09-09T14:33:13;3.30;;;0.80;;
70253;SDS011;57649;42.968;1.608;2022-09-09T14:35:40;1.73;;;0.73;;
70253;SDS011;57649;42.968;1.608;2022-09-09T14:38:06;2.28;;;1.05;;
70253;SDS011;57649;42.968;1.608;2022-09-09T14:40:34;2.83;;;1.05;;
70253;SDS011;57649;42.968;1.608;2022-09-09T14:43:00;3.28;;;1.30;;
70253;SDS011;57649;42.968;1.608;2022-09-09T14:45:26;3.30;;;1.20;;
70253;SDS011;57649;42.968;1.608;2022-09-09T14:47:51;4.15;;;0.85;;
70253;SDS011;57649;42.968;1.608;2022-09-09T14:50:17;1.98;;;0.82;;
70253;SDS011;57649;42.968;1.608;2022-09-09T14:52:44;3.20;;;1.00;;
70253;SDS011;57649;42.968;1.608;2022-09-09T14:55:10;3.22;;;0.90;;
70253;SDS011;57649;42.968;1.608;2022-09-09T14:57:36;2.53;;;1.13;;
70253;SDS011;57649;42.968;1.608;2022-09-09T15:00:05;2.13;;;0.90;;
70253;SDS011;57649;42.968;1.608;2022-09-09T15:02:32;2.63;;;1.40;;
70253;SDS011;57649;42.968;1.608;2022-09-09T15:04:57;2.72;;;1.13;;
70253;SDS011;57649;42.968;1.608;2022-09-09T15:07:23;2.33;;;1.00;;
70253;SDS011;57649;42.968;1.608;2022-09-09T15:09:49;2.88;;;1.30;;
70253;SDS011;57649;42.968;1.608;2022-09-09T15:12:15;3.70;;;1.33;;
70253;SDS011;57649;42.968;1.608;2022-09-09T15:14:43;3.55;;;0.90;;
70253;SDS011;57649;42.968;1.608;2022-09-09T15:17:09;2.80;;;1.10;;
70253;SDS011;57649;42.968;1.608;2022-09-09T15:19:34;2.67;;;1.00;;
70253;SDS011;57649;42.968;1.608;2022-09-09T15:22:01;3.33;;;0.98;;
70253;SDS011;57649;42.968;1.608;2022-09-09T15:24:27;2.13;;;0.95;;
70253;SDS011;57649;42.968;1.608;2022-09-09T15:26:53;2.70;;;0.85;;
70253;SDS011;57649;42.968;1.608;2022-09-09T15:29:19;3.95;;;0.90;;
70253;SDS011;57649;42.968;1.608;2022-09-09T15:31:44;7.72;;;1.30;;
70253;SDS011;57649;42.968;1.608;2022-09-09T15:34:11;6.22;;;1.80;;
70253;SDS011;57649;42.968;1.608;2022-09-09T15:36:42;4.03;;;1.33;;
70253;SDS011;57649;42.968;1.608;2022-09-09T15:39:11;5.00;;;1.15;;
70253;SDS011;57649;42.968;1.608;2022-09-09T15:41:40;5.00;;;1.45;;
70253;SDS011;57649;42.968;1.608;2022-09-09T15:44:10;3.53;;;1.13;;
70253;SDS011;57649;42.968;1.608;2022-09-09T15:46:43;2.00;;;1.02;;
70253;SDS011;57649;42.968;1.608;2022-09-09T15:49:19;3.20;;;1.00;;
70253;SDS011;57649;42.968;1.608;2022-09-09T15:51:53;4.00;;;1.23;;
70253;SDS011;57649;42.968;1.608;2022-09-09T15:54:23;3.30;;;1.23;;
70253;SDS011;57649;42.968;1.608;2022-09-09T15:56:51;4.38;;;1.20;;
70253;SDS011;57649;42.968;1.608;2022-09-09T16:01:45;2.83;;;1.10;;
70253;SDS011;57649;42.968;1.608;2022-09-09T16:04:10;4.63;;;1.35;;
70253;SDS011;57649;42.968;1.608;2022-09-09T16:06:36;3.85;;;1.42;;
70253;SDS011;57649;42.968;1.608;2022-09-09T16:09:02;4.15;;;1.30;;
70253;SDS011;57649;42.968;1.608;2022-09-09T16:11:34;4.50;;;1.63;;
70253;SDS011;57649;42.968;1.608;2022-09-09T16:14:01;2.25;;;1.45;;
70253;SDS011;57649;42.968;1.608;2022-09-09T16:16:27;4.22;;;1.55;;
70253;SDS011;57649;42.968;1.608;2022-09-09T16:18:55;4.53;;;1.85;;
70253;SDS011;57649;42.968;1.608;2022-09-09T16:21:27;4.80;;;1.42;;
70253;SDS011;57649;42.968;1.608;2022-09-09T16:23:56;2.88;;;1.52;;
70253;SDS011;57649;42.968;1.608;2022-09-09T16:26:27;3.70;;;1.95;;
70253;SDS011;57649;42.968;1.608;2022-09-09T16:28:54;5.30;;;1.70;;
70253;SDS011;57649;42.968;1.608;2022-09-09T16:31:21;5.05;;;1.73;;
70253;SDS011;57649;42.968;1.608;2022-09-09T16:33:48;3.78;;;1.60;;
70253;SDS011;57649;42.968;1.608;2022-09-09T16:36:16;2.83;;;1.60;;
70253;SDS011;57649;42.968;1.608;2022-09-09T16:38:43;4.30;;;1.98;;
70253;SDS011;57649;42.968;1.608;2022-09-09T16:41:10;3.15;;;1.80;;
70253;SDS011;57649;42.968;1.608;2022-09-09T16:43:37;3.53;;;2.03;;
70253;SDS011;57649;42.968;1.608;2022-09-09T16:46:03;4.75;;;1.42;;
70253;SDS011;57649;42.968;1.608;2022-09-09T16:48:38;2.28;;;1.67;;
70253;SDS011;57649;42.968;1.608;2022-09-09T16:51:04;5.15;;;1.40;;
70253;SDS011;57649;42.968;1.608;2022-09-09T16:53:32;4.10;;;2.50;;
70253;SDS011;57649;42.968;1.608;2022-09-09T16:55:58;5.88;;;1.90;;
70253;SDS011;57649;42.968;1.608;2022-09-09T16:58:29;3.13;;;1.60;;
70253;SDS011;57649;42.968;1.608;2022-09-09T17:00:58;3.80;;;2.15;;
70253;SDS011;57649;42.968;1.608;2022-09-09T17:03:30;6.20;;;3.00;;
70253;SDS011;57649;42.968;1.608;2022-09-09T17:08:30;3.42;;;1.45;;
70253;SDS011;57649;42.968;1.608;2022-09-09T17:10:56;6.20;;;1.50;;
70253;SDS011;57649;42.968;1.608;2022-09-09T17:13:22;6.10;;;1.95;;
70253;SDS011;57649;42.968;1.608;2022-09-09T17:15:48;3.20;;;1.40;;
70253;SDS011;57649;42.968;1.608;2022-09-09T17:18:13;5.75;;;3.42;;
70253;SDS011;57649;42.968;1.608;2022-09-09T17:20:39;9.05;;;1.80;;
70253;SDS011;57649;42.968;1.608;2022-09-09T17:23:06;3.80;;;2.03;;
70253;SDS011;57649;42.968;1.608;2022-09-09T17:25:35;5.82;;;1.30;;
70253;SDS011;57649;42.968;1.608;2022-09-09T17:28:01;4.45;;;2.05;;
70253;SDS011;57649;42.968;1.608;2022-09-09T17:30:29;4.43;;;1.35;;
70253;SDS011;57649;42.968;1.608;2022-09-09T17:32:55;5.70;;;1.30;;
70253;SDS011;57649;42.968;1.608;2022-09-09T17:35:20;2.83;;;1.73;;
70253;SDS011;57649;42.968;1.608;2022-09-09T17:37:46;3.40;;;1.20;;
70253;SDS011;57649;42.968;1.608;2022-09-09T17:40:11;2.78;;;1.00;;
70253;SDS011;57649;42.968;1.608;2022-09-09T17:42:37;5.35;;;1.30;;
70253;SDS011;57649;42.968;1.608;2022-09-09T17:45:02;1.92;;;1.08;;
70253;SDS011;57649;42.968;1.608;2022-09-09T17:47:28;2.95;;;1.48;;
70253;SDS011;57649;42.968;1.608;2022-09-09T17:49:55;3.08;;;1.30;;
70253;SDS011;57649;42.968;1.608;2022-09-09T17:52:21;3.08;;;1.58;;
70253;SDS011;57649;42.968;1.608;2022-09-09T17:54:47;2.67;;;1.30;;
70253;SDS011;57649;42.968;1.608;2022-09-09T17:57:14;2.05;;;0.95;;
70253;SDS011;57649;42.968;1.608;2022-09-09T17:59:42;3.28;;;1.00;;
70253;SDS011;57649;42.968;1.608;2022-09-09T18:02:08;3.40;;;1.63;;
70253;SDS011;57649;42.968;1.608;2022-09-09T18:04:35;1.98;;;1.00;;
70253;SDS011;57649;42.968;1.608;2022-09-09T18:07:01;4.85;;;1.10;;
70253;SDS011;57649;42.968;1.608;2022-09-09T18:09:26;2.30;;;0.75;;
70253;SDS011;57649;42.968;1.608;2022-09-09T18:11:53;1.20;;;0.70;;
70253;SDS011;57649;42.968;1.608;2022-09-09T18:14:21;1.20;;;0.70;;
70253;SDS011;57649;42.968;1.608;2022-09-09T18:16:57;1.75;;;0.80;;
70253;SDS011;57649;42.968;1.608;2022-09-09T18:19:24;1.45;;;1.00;;
70253;SDS011;57649;42.968;1.608;2022-09-09T18:21:51;4.03;;;0.85;;
70253;SDS011;57649;42.968;1.608;2022-09-09T18:24:18;3.03;;;0.95;;
70253;SDS011;57649;42.968;1.608;2022-09-09T18:26:45;8.57;;;1.80;;
70253;SDS011;57649;42.968;1.608;2022-09-09T18:29:13;2.35;;;1.58;;
70253;SDS011;57649;42.968;1.608;2022-09-09T18:31:40;2.80;;;1.60;;
70253;SDS011;57649;42.968;1.608;2022-09-09T18:34:08;2.25;;;0.77;;
70253;SDS011;57649;42.968;1.608;2022-09-09T18:36:42;3.13;;;1.10;;
70253;SDS011;57649;42.968;1.608;2022-09-09T18:39:10;3.92;;;1.23;;
70253;SDS011;57649;42.968;1.608;2022-09-09T18:41:38;2.40;;;1.13;;
70253;SDS011;57649;42.968;1.608;2022-09-09T18:44:12;4.43;;;1.75;;
70253;SDS011;57649;42.968;1.608;2022-09-09T18:46:40;3.72;;;1.00;;
70253;SDS011;57649;42.968;1.608;2022-09-09T18:49:06;7.65;;;1.60;;
70253;SDS011;57649;42.968;1.608;2022-09-09T18:51:32;3.97;;;1.42;;
70253;SDS011;57649;42.968;1.608;2022-09-09T18:54:02;2.55;;;1.00;;
70253;SDS011;57649;42.968;1.608;2022-09-09T18:56:29;4.43;;;1.40;;
70253;SDS011;57649;42.968;1.608;2022-09-09T18:58:56;5.88;;;1.33;;
70253;SDS011;57649;42.968;1.608;2022-09-09T19:01:24;3.03;;;1.30;;
70253;SDS011;57649;42.968;1.608;2022-09-09T19:03:50;2.50;;;1.20;;
70253;SDS011;57649;42.968;1.608;2022-09-09T19:06:19;3.95;;;1.20;;
70253;SDS011;57649;42.968;1.608;2022-09-09T19:08:47;3.42;;;1.27;;
70253;SDS011;57649;42.968;1.608;2022-09-09T19:11:14;4.55;;;1.48;;
70253;SDS011;57649;42.968;1.608;2022-09-09T19:16:09;3.55;;;1.40;;
70253;SDS011;57649;42.968;1.608;2022-09-09T19:18:37;4.28;;;1.60;;
70253;SDS011;57649;42.968;1.608;2022-09-09T19:21:16;4.75;;;2.08;;
70253;SDS011;57649;42.968;1.608;2022-09-09T19:23:44;5.05;;;1.80;;
70253;SDS011;57649;42.968;1.608;2022-09-09T19:26:11;5.30;;;1.60;;
70253;SDS011;57649;42.968;1.608;2022-09-09T19:28:40;3.47;;;2.00;;
70253;SDS011;57649;42.968;1.608;2022-09-09T19:31:07;4.07;;;1.75;;
70253;SDS011;57649;42.968;1.608;2022-09-09T19:33:34;4.45;;;1.70;;
70253;SDS011;57649;42.968;1.608;2022-09-09T19:36:02;4.57;;;2.22;;
70253;SDS011;57649;42.968;1.608;2022-09-09T19:38:30;7.10;;;1.70;;